Time;durP1;ratioP1;P1;durP2;ratioP2;P2;SDS_P1;SDS_P2;PMS_P1;PMS_P2;Temp;Humidity;BMP_temperature;BMP_pressure;BME280_temperature;BME280_humidity;BME280_pressure;Samples;Min_cycle;Max_cycle;Signal;HPM_P1;HPM_P2
2021/09/02 00:00:36;;;;;;;11.33;10.10;;;14.50;99.90;;;;;;5033261;28;20206;-69
2021/09/02 00:03:02;;;;;;;10.77;9.77;;;14.50;99.90;;;;;;5033347;28;20253;-69
2021/09/02 00:05:28;;;;;;;12.17;10.53;;;14.60;99.90;;;;;;5033322;28;20410;-69
2021/09/02 00:07:53;;;;;;;10.23;9.20;;;14.60;99.90;;;;;;5033313;28;20194;-68
2021/09/02 00:10:19;;;;;;;10.13;9.13;;;14.60;99.90;;;;;;5033463;28;20410;-69
2021/09/02 00:12:44;;;;;;;11.80;9.77;;;14.60;99.90;;;;;;5033579;28;20196;-69
2021/09/02 00:15:10;;;;;;;12.60;10.17;;;14.60;99.90;;;;;;5033577;28;20172;-69
2021/09/02 00:17:36;;;;;;;11.20;9.30;;;14.60;99.90;;;;;;5033128;28;20267;-69
2021/09/02 00:20:04;;;;;;;11.37;10.17;;;14.70;99.90;;;;;;5033091;28;21008;-69
2021/09/02 00:22:29;;;;;;;11.40;10.10;;;14.80;99.90;;;;;;5032835;28;20283;-68
2021/09/02 00:24:55;;;;;;;10.50;9.37;;;14.80;99.90;;;;;;5032879;28;20864;-68
2021/09/02 00:27:20;;;;;;;15.77;10.20;;;14.80;99.90;;;;;;5033058;28;20172;-67
2021/09/02 00:29:45;;;;;;;10.90;8.10;;;14.80;99.90;;;;;;5032896;28;20207;-67
2021/09/02 00:32:11;;;;;;;10.27;9.27;;;14.80;99.90;;;;;;5032621;28;20725;-67
2021/09/02 00:34:37;;;;;;;10.47;8.33;;;14.80;99.90;;;;;;5032812;28;20191;-67
2021/09/02 00:37:02;;;;;;;10.27;9.33;;;14.80;99.90;;;;;;5032555;28;20175;-67
2021/09/02 00:39:28;;;;;;;11.00;8.47;;;14.90;99.90;;;;;;5032540;28;20187;-67
2021/09/02 00:41:53;;;;;;;8.97;8.13;;;14.80;99.90;;;;;;5032516;28;20170;-67
2021/09/02 00:44:36;;;;;;;9.90;9.00;;;14.80;99.90;;;;;;5032461;28;20183;-69
2021/09/02 00:47:06;;;;;;;9.07;8.17;;;14.80;99.90;;;;;;5032488;28;20203;-70
2021/09/02 00:49:32;;;;;;;9.10;8.20;;;14.80;99.90;;;;;;5014818;28;20419;-66
2021/09/02 00:52:00;;;;;;;9.90;8.90;;;14.80;99.90;;;;;;5032237;28;20438;-67
2021/09/02 00:54:26;;;;;;;8.93;8.03;;;14.80;99.90;;;;;;5032436;28;20458;-66
2021/09/02 00:56:51;;;;;;;9.20;7.47;;;14.80;99.90;;;;;;5032273;28;20490;-66
2021/09/02 00:59:17;;;;;;;8.93;8.03;;;14.80;99.90;;;;;;5032347;28;20628;-67
2021/09/02 01:01:43;;;;;;;9.80;8.40;;;14.80;99.90;;;;;;5032339;28;20168;-67
2021/09/02 01:04:09;;;;;;;9.17;8.30;;;14.80;99.90;;;;;;5032550;28;20188;-69
2021/09/02 01:06:35;;;;;;;8.63;7.03;;;14.70;99.90;;;;;;5032590;28;20859;-69
2021/09/02 01:09:01;;;;;;;9.30;7.97;;;14.80;99.90;;;;;;5014467;28;20183;-69
2021/09/02 01:11:26;;;;;;;12.10;8.73;;;14.80;99.90;;;;;;5032090;28;20411;-69
2021/09/02 01:13:52;;;;;;;9.97;8.40;;;14.80;99.90;;;;;;5032083;28;20525;-69
2021/09/02 01:16:17;;;;;;;8.60;7.80;;;14.70;99.90;;;;;;5032101;28;20175;-69
2021/09/02 01:18:42;;;;;;;9.93;8.93;;;14.80;99.90;;;;;;5030495;28;20390;-69
2021/09/02 01:21:08;;;;;;;9.73;8.30;;;14.70;99.90;;;;;;5031724;28;20734;-69
2021/09/02 01:23:34;;;;;;;10.20;8.03;;;14.70;99.90;;;;;;5031940;28;20556;-69
2021/09/02 01:26:00;;;;;;;8.70;7.90;;;14.70;99.90;;;;;;5032115;28;20160;-68
2021/09/02 01:28:26;;;;;;;8.40;7.17;;;14.70;99.90;;;;;;5032179;28;20407;-68
2021/09/02 01:30:51;;;;;;;9.13;8.20;;;14.70;99.90;;;;;;5032017;28;20253;-68
2021/09/02 01:33:17;;;;;;;9.77;8.83;;;14.70;99.90;;;;;;5030275;28;20322;-68
2021/09/02 01:35:43;;;;;;;9.93;7.93;;;14.60;99.90;;;;;;5031914;28;20631;-68
2021/09/02 01:38:09;;;;;;;9.20;8.30;;;14.60;99.90;;;;;;5031818;28;20251;-68
2021/09/02 01:40:47;;;;;;;13.27;8.17;;;14.60;99.90;;;;;;5031702;28;20485;-68
2021/09/02 01:43:14;;;;;;;8.47;7.63;;;14.60;99.90;;;;;;5031098;28;20410;-68
2021/09/02 01:45:40;;;;;;;8.47;7.50;;;14.60;99.90;;;;;;5031546;28;20500;-68
2021/09/02 01:48:07;;;;;;;9.30;7.30;;;14.70;99.90;;;;;;5021955;28;20453;-68
2021/09/02 01:50:40;;;;;;;9.13;7.73;;;14.60;99.90;;;;;;5031600;28;20457;-68
2021/09/02 01:53:07;;;;;;;10.03;9.00;;;14.60;99.90;;;;;;5031634;28;20484;-67
2021/09/02 01:55:33;;;;;;;9.97;8.87;;;14.60;99.90;;;;;;5031519;28;20423;-67
2021/09/02 01:57:59;;;;;;;9.93;8.90;;;14.60;99.90;;;;;;5031393;28;20501;-67
2021/09/02 02:00:24;;;;;;;11.27;9.87;;;14.60;99.90;;;;;;5031406;28;20456;-67
2021/09/02 02:02:50;;;;;;;11.83;10.43;;;14.60;99.90;;;;;;5031368;28;20187;-67
2021/09/02 02:05:16;;;;;;;10.67;9.47;;;14.60;99.90;;;;;;5031556;28;20255;-66
2021/09/02 02:07:43;;;;;;;9.60;8.70;;;14.60;99.90;;;;;;5031373;28;20766;-67
2021/09/02 02:10:12;;;;;;;11.73;9.93;;;14.60;99.90;;;;;;5031474;28;20406;-67
2021/09/02 02:12:38;;;;;;;10.80;9.07;;;14.50;99.90;;;;;;5031234;28;20796;-70
2021/09/02 02:15:04;;;;;;;12.20;9.03;;;14.50;99.90;;;;;;5031687;28;20418;-70
2021/09/02 02:17:30;;;;;;;13.60;9.27;;;14.50;99.90;;;;;;5031329;28;20238;-70
2021/09/02 02:19:55;;;;;;;10.70;9.50;;;14.50;99.90;;;;;;5031274;28;20453;-67
2021/09/02 02:22:21;;;;;;;9.80;8.90;;;14.50;99.90;;;;;;5031164;28;20559;-68
2021/09/02 02:24:46;;;;;;;9.87;8.60;;;14.50;99.90;;;;;;5031466;28;20179;-68
2021/09/02 02:27:12;;;;;;;14.43;9.73;;;14.40;99.90;;;;;;5031750;28;20251;-67
2021/09/02 02:29:37;;;;;;;10.37;9.27;;;14.40;99.90;;;;;;5031494;28;20175;-68
2021/09/02 02:32:03;;;;;;;9.50;8.50;;;14.30;99.90;;;;;;5031273;28;20175;-68
2021/09/02 02:34:29;;;;;;;10.17;9.00;;;14.30;99.90;;;;;;5031508;28;20178;-68
2021/09/02 02:36:55;;;;;;;11.20;10.03;;;14.20;99.90;;;;;;5031277;28;20253;-68
2021/09/02 02:39:20;;;;;;;10.40;8.77;;;14.20;99.90;;;;;;5031358;28;20941;-68
2021/09/02 02:41:46;;;;;;;10.83;9.10;;;14.20;99.90;;;;;;5031118;28;20164;-68
2021/09/02 02:44:11;;;;;;;9.37;8.47;;;14.20;99.90;;;;;;5031327;28;20717;-68
2021/09/02 02:46:37;;;;;;;9.40;8.40;;;14.10;99.90;;;;;;5031637;28;20191;-68
2021/09/02 02:49:02;;;;;;;11.20;8.20;;;14.10;99.90;;;;;;5031079;28;20172;-68
2021/09/02 02:51:28;;;;;;;13.37;9.27;;;14.10;99.90;;;;;;5030960;28;20545;-68
2021/09/02 02:53:53;;;;;;;10.90;8.70;;;14.10;99.90;;;;;;5030911;28;20249;-67
2021/09/02 02:56:19;;;;;;;10.50;7.90;;;14.10;99.90;;;;;;5034523;28;20229;-68
2021/09/02 02:58:44;;;;;;;9.80;8.67;;;14.10;99.90;;;;;;5034404;28;20258;-68
2021/09/02 03:01:10;;;;;;;10.23;9.23;;;14.10;99.90;;;;;;5034510;28;20541;-68
2021/09/02 03:03:36;;;;;;;11.83;8.53;;;14.10;99.90;;;;;;5034375;28;20183;-68
2021/09/02 03:06:01;;;;;;;10.10;9.10;;;14.10;99.90;;;;;;5034331;28;20437;-68
2021/09/02 03:08:27;;;;;;;11.70;9.90;;;14.00;99.90;;;;;;5034189;28;20182;-68
2021/09/02 03:10:52;;;;;;;9.50;8.60;;;14.00;99.90;;;;;;5034293;28;20217;-68
2021/09/02 03:13:18;;;;;;;9.70;8.57;;;14.00;99.90;;;;;;5034369;28;20195;-68
2021/09/02 03:15:43;;;;;;;10.07;8.53;;;14.00;99.90;;;;;;5034429;28;20276;-68
2021/09/02 03:18:09;;;;;;;11.07;9.20;;;14.00;99.90;;;;;;5034090;28;20167;-68
2021/09/02 03:20:34;;;;;;;11.10;10.00;;;14.00;99.90;;;;;;5034001;28;20199;-69
2021/09/02 03:22:59;;;;;;;11.23;8.83;;;14.00;99.90;;;;;;5033915;28;20639;-69
2021/09/02 03:25:25;;;;;;;11.50;9.30;;;14.00;99.90;;;;;;5034013;28;20168;-68
2021/09/02 03:27:51;;;;;;;11.97;9.47;;;13.90;99.90;;;;;;5033875;28;20671;-69
2021/09/02 03:30:16;;;;;;;10.70;9.60;;;13.90;99.90;;;;;;5034239;28;20179;-68
2021/09/02 03:32:42;;;;;;;10.00;8.67;;;14.00;99.90;;;;;;5033705;28;20199;-69
2021/09/02 03:35:08;;;;;;;12.43;11.23;;;14.00;99.90;;;;;;5033889;28;20176;-69
2021/09/02 03:37:34;;;;;;;11.03;9.93;;;13.90;99.90;;;;;;5033572;28;20229;-69
2021/09/02 03:40:00;;;;;;;13.90;9.97;;;14.00;99.90;;;;;;5033754;28;20941;-68
2021/09/02 03:42:25;;;;;;;11.37;10.23;;;14.00;99.90;;;;;;5033489;28;20203;-68
2021/09/02 03:44:50;;;;;;;9.17;8.27;;;14.00;99.90;;;;;;5033789;28;20179;-68
2021/09/02 03:47:16;;;;;;;11.87;9.07;;;14.00;99.90;;;;;;5033599;28;20168;-68
2021/09/02 03:49:42;;;;;;;14.07;10.73;;;14.00;99.90;;;;;;5018539;28;20195;-68
2021/09/02 03:52:07;;;;;;;12.47;9.37;;;14.00;99.90;;;;;;5013744;28;20196;-67
2021/09/02 03:54:33;;;;;;;9.97;8.97;;;13.90;99.90;;;;;;5013606;28;20271;-68
2021/09/02 03:56:59;;;;;;;10.40;8.40;;;13.90;99.90;;;;;;5013587;28;20455;-67
2021/09/02 03:59:24;;;;;;;10.03;8.63;;;13.90;99.90;;;;;;5013612;28;20208;-68
2021/09/02 04:01:50;;;;;;;13.10;10.30;;;13.80;99.90;;;;;;5017983;28;20246;-69
2021/09/02 04:04:15;;;;;;;9.40;8.50;;;13.80;99.90;;;;;;5031544;28;20230;-68
2021/09/02 04:06:41;;;;;;;12.00;9.50;;;13.80;99.90;;;;;;5030973;28;20639;-68
2021/09/02 04:09:06;;;;;;;10.60;9.53;;;13.80;99.90;;;;;;5031707;28;20190;-68
2021/09/02 04:11:32;;;;;;;14.07;9.10;;;13.80;99.90;;;;;;5032731;28;20229;-68
2021/09/02 04:13:57;;;;;;;11.83;10.03;;;13.80;99.90;;;;;;5033247;28;20191;-68
2021/09/02 04:16:22;;;;;;;11.77;8.80;;;13.70;99.90;;;;;;5033178;28;20210;-68
2021/09/02 04:18:48;;;;;;;10.50;8.70;;;13.70;99.90;;;;;;5033104;28;20611;-68
2021/09/02 04:21:14;;;;;;;14.63;10.13;;;13.70;99.90;;;;;;5032969;28;20251;-68
2021/09/02 04:23:40;;;;;;;11.83;10.00;;;13.70;99.90;;;;;;5032967;28;20191;-68
2021/09/02 04:26:05;;;;;;;9.20;7.93;;;13.70;99.90;;;;;;5032763;28;20250;-68
2021/09/02 04:28:31;;;;;;;10.53;9.40;;;13.60;99.90;;;;;;5032767;28;20174;-68
2021/09/02 04:30:57;;;;;;;12.40;9.70;;;13.60;99.90;;;;;;5032702;28;20419;-68
2021/09/02 04:33:22;;;;;;;13.60;10.53;;;13.60;99.90;;;;;;5032643;28;20711;-68
2021/09/02 04:35:48;;;;;;;9.77;8.77;;;13.60;99.90;;;;;;5033013;28;20195;-68
2021/09/02 04:38:18;;;;;;;12.03;10.03;;;13.60;99.90;;;;;;5032651;28;20182;-68
2021/09/02 04:40:43;;;;;;;10.77;9.40;;;13.60;99.90;;;;;;5032383;28;20744;-68
2021/09/02 04:43:09;;;;;;;10.60;9.57;;;13.60;99.90;;;;;;5032644;28;20414;-68
2021/09/02 04:45:34;;;;;;;11.90;10.23;;;13.60;99.90;;;;;;5032694;28;20646;-69
2021/09/02 04:48:00;;;;;;;18.20;9.90;;;13.60;99.90;;;;;;5032456;28;20163;-68
2021/09/02 04:50:25;;;;;;;11.30;9.90;;;13.60;99.90;;;;;;5032575;28;20175;-68
2021/09/02 04:52:50;;;;;;;13.47;10.00;;;13.60;99.90;;;;;;5032398;28;20720;-68
2021/09/02 04:55:16;;;;;;;11.43;10.10;;;13.60;99.90;;;;;;5032254;28;20207;-68
2021/09/02 04:57:41;;;;;;;15.90;10.20;;;13.60;99.90;;;;;;5032409;28;20191;-68
2021/09/02 05:00:08;;;;;;;14.30;11.00;;;13.60;99.90;;;;;;5032207;28;20282;-68
2021/09/02 05:02:33;;;;;;;10.50;9.40;;;13.60;99.90;;;;;;5032026;28;20198;-68
2021/09/02 05:04:59;;;;;;;11.10;8.87;;;13.70;99.90;;;;;;5032301;28;20411;-68
2021/09/02 05:07:24;;;;;;;13.13;9.23;;;13.60;99.90;;;;;;5032197;28;20172;-68
2021/09/02 05:09:50;;;;;;;11.13;9.50;;;13.70;99.90;;;;;;5032000;28;20175;-68
2021/09/02 05:12:17;;;;;;;11.87;10.70;;;13.70;99.90;;;;;;5032007;28;20191;-68
2021/09/02 05:14:43;;;;;;;11.77;10.57;;;13.70;99.90;;;;;;5032001;28;20178;-68
2021/09/02 05:17:09;;;;;;;14.20;9.20;;;13.70;99.90;;;;;;5031222;28;20429;-68
2021/09/02 05:19:35;;;;;;;14.77;10.57;;;13.70;99.90;;;;;;5032451;28;20949;-68
2021/09/02 05:22:00;;;;;;;12.00;10.27;;;13.70;99.90;;;;;;5032170;28;20218;-68
2021/09/02 05:24:26;;;;;;;17.37;10.43;;;13.80;99.90;;;;;;5031757;28;20438;-68
2021/09/02 05:26:52;;;;;;;13.60;10.30;;;13.80;99.90;;;;;;5031833;28;20222;-68
2021/09/02 05:29:17;;;;;;;11.73;10.40;;;13.80;99.90;;;;;;5031731;28;20414;-68
2021/09/02 05:31:42;;;;;;;13.73;10.20;;;14.00;99.90;;;;;;5031509;28;20649;-68
2021/09/02 05:34:08;;;;;;;11.63;9.47;;;14.00;99.90;;;;;;5031823;28;20191;-68
2021/09/02 05:36:33;;;;;;;18.37;10.23;;;14.10;99.90;;;;;;5031804;28;20167;-68
2021/09/02 05:38:59;;;;;;;12.10;9.53;;;14.10;99.90;;;;;;5031526;28;20717;-68
2021/09/02 05:41:24;;;;;;;10.30;9.00;;;14.20;99.90;;;;;;5014027;28;20305;-68
2021/09/02 05:43:50;;;;;;;12.03;7.80;;;14.30;99.90;;;;;;5031745;28;20195;-69
2021/09/02 05:46:15;;;;;;;11.73;9.77;;;14.60;99.90;;;;;;5031892;28;20241;-69
2021/09/02 05:48:41;;;;;;;10.40;7.30;;;14.90;99.90;;;;;;5031709;28;20177;-68
2021/09/02 05:51:06;;;;;;;10.60;7.17;;;15.30;99.90;;;;;;5031848;28;20179;-69
2021/09/02 05:53:31;;;;;;;8.23;7.00;;;15.90;99.90;;;;;;5031618;28;20216;-69
2021/09/02 05:55:57;;;;;;;11.30;7.23;;;16.30;99.90;;;;;;5031515;28;20217;-67
2021/09/02 05:58:22;;;;;;;10.30;7.97;;;16.90;99.90;;;;;;5031576;28;20640;-66
2021/09/02 06:00:48;;;;;;;9.17;6.70;;;16.90;99.90;;;;;;5031463;28;20203;-66
2021/09/02 06:03:14;;;;;;;7.30;6.20;;;17.30;99.90;;;;;;5031478;28;20194;-67
2021/09/02 06:05:39;;;;;;;8.10;6.40;;;17.60;99.90;;;;;;5031752;28;20614;-67
2021/09/02 06:08:05;;;;;;;7.20;6.50;;;17.80;99.90;;;;;;5031351;28;20181;-69
2021/09/02 06:10:32;;;;;;;9.47;6.70;;;18.30;99.90;;;;;;5031605;28;20183;-69
2021/09/02 06:12:58;;;;;;;6.93;6.30;;;18.80;99.90;;;;;;5031335;28;20202;-69
2021/09/02 06:15:23;;;;;;;8.63;6.40;;;19.30;99.90;;;;;;5031717;28;20828;-69
2021/09/02 06:17:49;;;;;;;7.20;6.07;;;19.60;99.90;;;;;;5031399;28;20204;-69
2021/09/02 06:20:14;;;;;;;13.97;6.47;;;19.80;99.90;;;;;;5031089;28;20212;-67
2021/09/02 06:22:40;;;;;;;6.20;5.53;;;19.60;99.90;;;;;;5030878;28;20289;-68
2021/09/02 06:25:09;;;;;;;8.87;7.30;;;19.40;99.90;;;;;;5031058;28;20533;-66
2021/09/02 06:27:35;;;;;;;11.90;6.70;;;19.20;99.90;;;;;;5030802;28;20180;-69
2021/09/02 06:30:01;;;;;;;10.00;7.07;;;19.50;99.90;;;;;;5034229;28;20496;-68
2021/09/02 06:32:26;;;;;;;10.37;6.30;;;20.10;99.90;;;;;;5034752;28;20554;-69
2021/09/02 06:34:52;;;;;;;13.03;7.17;;;20.20;99.90;;;;;;5034830;28;20177;-69
2021/09/02 06:37:17;;;;;;;11.47;6.00;;;20.50;99.90;;;;;;5034890;28;20193;-67
2021/09/02 06:39:43;;;;;;;9.40;7.20;;;20.70;99.90;;;;;;5034603;28;20718;-68
2021/09/02 06:42:08;;;;;;;10.00;7.10;;;19.80;99.90;;;;;;5034450;28;20257;-68
2021/09/02 06:44:33;;;;;;;9.17;7.00;;;20.20;99.90;;;;;;5034551;28;20671;-68
2021/09/02 06:46:59;;;;;;;8.73;6.97;;;20.70;99.90;;;;;;5034370;28;20237;-67
2021/09/02 06:49:24;;;;;;;9.43;5.77;;;21.30;99.90;;;;;;5034556;28;20179;-67
2021/09/02 06:51:52;;;;;;;7.10;6.07;;;21.60;99.90;;;;;;5034158;28;20173;-67
2021/09/02 06:54:17;;;;;;;7.57;6.30;;;21.30;99.90;;;;;;5033961;28;20613;-68
2021/09/02 06:56:43;;;;;;;9.40;5.90;;;22.40;99.90;;;;;;5034241;28;20414;-68
2021/09/02 06:59:08;;;;;;;6.03;5.53;;;21.80;99.90;;;;;;5034228;28;20207;-67
2021/09/02 07:01:34;;;;;;;11.90;5.60;;;21.20;99.90;;;;;;5034087;28;20196;-67
2021/09/02 07:03:59;;;;;;;6.77;5.73;;;21.90;99.90;;;;;;5034206;28;20189;-68
2021/09/02 07:06:25;;;;;;;9.67;5.67;;;21.40;99.90;;;;;;5034220;28;20171;-68
2021/09/02 07:08:50;;;;;;;8.57;6.43;;;21.80;99.90;;;;;;5034160;28;20177;-68
2021/09/02 07:11:15;;;;;;;8.80;6.03;;;22.40;99.90;;;;;;5033935;28;20174;-68
2021/09/02 07:13:41;;;;;;;8.17;6.40;;;22.80;99.90;;;;;;5033803;28;20274;-68
2021/09/02 07:16:06;;;;;;;7.10;5.87;;;22.50;99.90;;;;;;5034302;28;20167;-67
2021/09/02 07:18:32;;;;;;;7.37;6.20;;;23.60;99.90;;;;;;5033869;28;20171;-67
2021/09/02 07:20:57;;;;;;;8.73;6.33;;;23.60;99.90;;;;;;5033756;28;20230;-67
2021/09/02 07:23:23;;;;;;;6.53;5.50;;;23.00;99.90;;;;;;5033794;28;20556;-67
2021/09/02 07:25:48;;;;;;;7.17;5.97;;;23.00;99.90;;;;;;5033713;28;20167;-67
2021/09/02 07:28:14;;;;;;;8.63;6.70;;;22.20;99.90;;;;;;5033600;28;20164;-67
2021/09/02 07:30:41;;;;;;;9.17;6.33;;;22.30;99.90;;;;;;5034220;28;20237;-67
2021/09/02 07:33:06;;;;;;;8.77;6.67;;;22.40;99.90;;;;;;5033529;28;20278;-67
2021/09/02 07:35:32;;;;;;;8.80;7.30;;;22.90;99.90;;;;;;5033543;28;20497;-68
2021/09/02 07:37:57;;;;;;;7.73;6.90;;;21.60;99.90;;;;;;5033590;28;20192;-67
2021/09/02 07:40:23;;;;;;;8.70;7.10;;;21.20;99.90;;;;;;5032718;28;20606;-68
2021/09/02 07:42:48;;;;;;;7.43;6.67;;;21.60;99.90;;;;;;5033239;28;20272;-67
2021/09/02 07:45:14;;;;;;;8.40;6.80;;;22.30;99.90;;;;;;5033610;28;20259;-67
2021/09/02 07:47:40;;;;;;;8.23;7.00;;;21.30;99.90;;;;;;5033485;28;20181;-67
2021/09/02 07:50:06;;;;;;;10.90;7.43;;;22.10;99.90;;;;;;5033358;28;20176;-68
2021/09/02 07:52:34;;;;;;;11.73;7.57;;;21.50;99.90;;;;;;5031995;28;20554;-68
2021/09/02 07:55:00;;;;;;;7.17;6.47;;;22.70;99.90;;;;;;5032525;28;20441;-67
2021/09/02 07:57:25;;;;;;;11.13;7.53;;;21.60;99.90;;;;;;5032261;28;20417;-67
2021/09/02 07:59:51;;;;;;;7.83;7.03;;;21.60;99.90;;;;;;5033193;28;20194;-67
2021/09/02 08:02:16;;;;;;;8.80;6.70;;;21.20;99.90;;;;;;5032973;28;20186;-67
2021/09/02 08:04:42;;;;;;;8.90;6.93;;;20.80;99.90;;;;;;5033030;28;20201;-67
2021/09/02 08:07:07;;;;;;;8.93;6.63;;;20.50;99.90;;;;;;5032911;28;20193;-68
2021/09/02 08:09:33;;;;;;;9.80;7.10;;;21.30;99.90;;;;;;5033087;28;20182;-67
2021/09/02 08:11:58;;;;;;;9.27;8.23;;;20.60;99.90;;;;;;5032897;28;20177;-68
2021/09/02 08:14:24;;;;;;;7.00;6.30;;;21.80;99.90;;;;;;5032908;28;20685;-67
2021/09/02 08:16:50;;;;;;;6.60;6.00;;;23.50;99.90;;;;;;5032724;28;20541;-68
2021/09/02 08:19:15;;;;;;;7.43;6.73;;;22.70;99.90;;;;;;5032566;28;20206;-67
2021/09/02 08:21:41;;;;;;;8.03;6.57;;;23.40;99.90;;;;;;5032826;28;20314;-67
2021/09/02 08:24:07;;;;;;;9.43;6.80;;;22.80;99.90;;;;;;5032566;28;20183;-67
2021/09/02 08:26:34;;;;;;;7.03;6.37;;;22.70;99.90;;;;;;5032538;28;20163;-67
2021/09/02 08:29:00;;;;;;;7.83;7.13;;;21.10;99.90;;;;;;5032429;28;20997;-67
2021/09/02 08:31:26;;;;;;;7.53;6.73;;;21.80;99.90;;;;;;5032580;28;20456;-68
2021/09/02 08:33:52;;;;;;;7.53;6.73;;;22.10;99.90;;;;;;5032270;28;20873;-67
2021/09/02 08:36:17;;;;;;;7.53;6.83;;;21.40;99.90;;;;;;5032491;28;20416;-67
2021/09/02 08:38:47;;;;;;;7.60;6.67;;;22.00;99.90;;;;;;5032335;28;20174;-67
2021/09/02 08:41:16;;;;;;;7.50;6.70;;;21.50;99.90;;;;;;5032354;28;20202;-67
2021/09/02 08:43:43;;;;;;;7.23;6.50;;;21.90;99.90;;;;;;5032261;28;20476;-67
2021/09/02 08:46:09;;;;;;;9.07;7.20;;;21.30;99.90;;;;;;5032320;28;20440;-68
2021/09/02 08:48:38;;;;;;;10.30;6.50;;;20.40;99.90;;;;;;5032192;28;20409;-68
2021/09/02 08:51:04;;;;;;;8.47;7.70;;;20.40;99.90;;;;;;5032171;28;20184;-68
2021/09/02 08:53:29;;;;;;;7.47;6.80;;;20.30;99.90;;;;;;5032273;28;20424;-68
2021/09/02 08:55:54;;;;;;;7.27;6.57;;;21.00;99.90;;;;;;5029051;28;20203;-67
2021/09/02 08:58:20;;;;;;;7.47;6.87;;;20.30;99.90;;;;;;5032661;28;20698;-68
2021/09/02 09:00:48;;;;;;;7.50;6.80;;;19.40;99.90;;;;;;5032271;28;20246;-68
2021/09/02 09:03:18;;;;;;;7.30;5.97;;;19.10;99.90;;;;;;5031969;28;20275;-68
2021/09/02 09:05:51;;;;;;;7.10;6.50;;;19.60;99.90;;;;;;5031175;28;20411;-68
2021/09/02 09:08:16;;;;;;;6.50;5.93;;;19.40;99.90;;;;;;5032460;28;20467;-69
2021/09/02 09:10:42;;;;;;;7.73;6.33;;;19.60;99.90;;;;;;5032489;28;20419;-69
2021/09/02 09:13:08;;;;;;;6.97;6.47;;;18.90;99.90;;;;;;5032203;28;20275;-68
2021/09/02 09:15:38;;;;;;;5.93;5.27;;;17.90;99.90;;;;;;5032042;28;20180;-69
2021/09/02 09:18:15;;;;;;;6.57;5.97;;;17.90;99.90;;;;;;5032003;28;20419;-68
2021/09/02 09:21:03;;;;;;;6.97;6.37;;;18.30;99.90;;;;;;5032093;28;20480;-68
2021/09/02 09:23:49;;;;;;;5.50;5.00;;;18.50;99.90;;;;;;5031011;28;20423;-68
2021/09/02 09:26:18;;;;;;;6.97;6.27;;;19.30;99.90;;;;;;5032096;28;20409;-68
2021/09/02 09:28:43;;;;;;;5.07;4.67;;;18.90;99.90;;;;;;5030259;28;20440;-68
2021/09/02 09:31:33;;;;;;;9.83;5.40;;;19.40;99.90;;;;;;5032045;28;20428;-68
2021/09/02 09:34:05;;;;;;;6.20;5.57;;;19.30;99.90;;;;;;5032005;28;20640;-68
2021/09/02 09:36:33;;;;;;;6.43;4.40;;;19.10;99.90;;;;;;5031763;28;20504;-68
2021/09/02 09:39:06;;;;;;;6.03;5.47;;;19.60;99.90;;;;;;5031579;28;20411;-68
2021/09/02 09:41:37;;;;;;;6.03;5.43;;;19.70;99.90;;;;;;5031763;28;20435;-68
2021/09/02 09:44:19;;;;;;;5.20;4.80;;;19.70;99.90;;;;;;5031771;28;20422;-73
2021/09/02 09:47:43;;;;;;;6.10;5.47;;;20.50;99.90;;;;;;5031286;28;20899;-68
2021/09/02 09:50:09;;;;;;;6.03;5.43;;;20.30;99.90;;;;;;4975764;28;20434;-71
2021/09/02 09:52:41;;;;;;;6.63;5.90;;;20.90;99.90;;;;;;5030081;28;20430;-70
2021/09/02 09:55:16;;;;;;;5.33;4.50;;;20.10;99.90;;;;;;5027467;28;20954;-71
2021/09/02 09:57:48;;;;;;;6.23;5.73;;;20.40;99.90;;;;;;5026982;28;20485;-68
2021/09/02 10:00:21;;;;;;;5.00;4.50;;;19.80;99.90;;;;;;5014513;28;20543;-70
2021/09/02 10:02:48;;;;;;;5.27;4.77;;;20.00;99.90;;;;;;5031288;28;20446;-68
2021/09/02 10:05:16;;;;;;;5.43;4.97;;;19.70;99.90;;;;;;5017257;28;20788;-68
2021/09/02 10:07:43;;;;;;;6.27;5.67;;;19.40;99.90;;;;;;5030430;28;20425;-68
2021/09/02 10:10:13;;;;;;;6.17;5.60;;;19.20;99.90;;;;;;5034151;28;20888;-68
2021/09/02 10:12:40;;;;;;;6.90;6.20;;;19.20;99.90;;;;;;5034137;28;20873;-68
2021/09/02 10:15:08;;;;;;;6.77;5.53;;;19.40;99.90;;;;;;5034421;28;20439;-69
2021/09/02 10:17:36;;;;;;;5.80;5.20;;;19.60;99.90;;;;;;5016863;28;20420;-68
2021/09/02 10:20:32;;;;;;;6.93;6.33;;;18.90;99.90;;;;;;5017381;28;20588;-68
2021/09/02 10:23:00;;;;;;;10.13;7.17;;;18.20;99.90;;;;;;4999827;28;20443;-68
2021/09/02 10:25:34;;;;;;;7.10;6.40;;;18.70;99.90;;;;;;5035071;28;20513;-69
2021/09/02 10:28:12;;;;;;;6.93;6.30;;;18.80;99.90;;;;;;5035220;28;20486;-69
2021/09/02 10:30:47;;;;;;;6.77;6.17;;;19.00;99.90;;;;;;5034933;28;20424;-69
2021/09/02 10:33:38;;;;;;;7.20;6.37;;;18.80;99.90;;;;;;5034775;28;20481;-69
2021/09/02 10:36:23;;;;;;;7.20;6.37;;;19.00;99.90;;;;;;5034932;28;20907;-69
2021/09/02 10:38:55;;;;;;;7.83;6.30;;;18.70;99.90;;;;;;5034606;28;20781;-69
2021/09/02 10:41:36;;;;;;;10.07;6.47;;;19.00;99.90;;;;;;5035120;28;20413;-69
2021/09/02 10:44:03;;;;;;;7.10;6.50;;;19.40;99.90;;;;;;5016968;28;20424;-69
2021/09/02 10:46:43;;;;;;;8.03;6.63;;;19.70;99.90;;;;;;5035159;28;20488;-68
2021/09/02 10:49:31;;;;;;;6.43;5.83;;;20.30;99.90;;;;;;5016933;28;20406;-69
2021/09/02 10:52:05;;;;;;;8.70;7.50;;;19.90;99.90;;;;;;5034330;28;20459;-68
2021/09/02 10:54:39;;;;;;;8.13;6.63;;;19.40;99.90;;;;;;5034283;28;20421;-68
2021/09/02 10:57:13;;;;;;;8.73;7.60;;;19.20;99.90;;;;;;5034453;28;20433;-69
2021/09/02 10:59:46;;;;;;;10.83;7.73;;;18.40;99.90;;;;;;5027702;28;20531;-69
2021/09/02 11:02:17;;;;;;;7.57;6.87;;;19.00;99.90;;;;;;5034480;28;20399;-69
2021/09/02 11:04:45;;;;;;;13.63;7.40;;;19.90;99.90;;;;;;5034618;28;20443;-69
2021/09/02 11:07:13;;;;;;;7.40;6.50;;;20.10;99.90;;;;;;5034527;28;20403;-69
2021/09/02 11:09:42;;;;;;;9.63;7.33;;;20.20;99.90;;;;;;5034898;28;20414;-69
2021/09/02 11:12:11;;;;;;;8.23;7.30;;;19.60;99.90;;;;;;5034585;28;20456;-69
2021/09/02 11:14:45;;;;;;;8.90;6.37;;;19.20;99.90;;;;;;5033316;28;20946;-71
2021/09/02 11:17:12;;;;;;;7.83;6.90;;;19.40;99.90;;;;;;5033737;28;20415;-69
2021/09/02 11:19:42;;;;;;;7.50;6.73;;;19.70;99.90;;;;;;5030623;28;20810;-69
2021/09/02 11:22:10;;;;;;;10.47;6.53;;;20.00;99.90;;;;;;5032113;28;20540;-69
2021/09/02 11:24:41;;;;;;;8.40;6.83;;;19.80;99.90;;;;;;5025800;28;20434;-69
2021/09/02 11:27:08;;;;;;;8.70;7.17;;;19.90;99.90;;;;;;5031565;28;20841;-69
2021/09/02 11:29:34;;;;;;;7.23;5.83;;;19.90;99.90;;;;;;5029978;28;20551;-69
2021/09/02 11:32:12;;;;;;;13.87;7.20;;;20.10;99.90;;;;;;5033597;28;20407;-68
2021/09/02 11:34:38;;;;;;;7.70;7.00;;;20.00;99.90;;;;;;5034069;28;20164;-68
2021/09/02 11:37:04;;;;;;;10.47;7.60;;;19.80;99.90;;;;;;5019515;28;20478;-69
2021/09/02 11:39:33;;;;;;;7.83;7.03;;;20.00;99.90;;;;;;5013758;28;20806;-68
2021/09/02 11:42:08;;;;;;;9.07;7.20;;;20.00;99.90;;;;;;5014112;28;20428;-69
2021/09/02 11:44:35;;;;;;;9.83;6.50;;;20.20;99.90;;;;;;5019243;28;20438;-68
2021/09/02 11:47:05;;;;;;;7.60;6.90;;;20.00;99.90;;;;;;5033610;28;20410;-68
2021/09/02 11:49:30;;;;;;;7.40;6.70;;;19.90;99.90;;;;;;5033468;28;20769;-68
2021/09/02 11:51:58;;;;;;;7.87;7.07;;;19.60;99.90;;;;;;5033150;28;20417;-68
2021/09/02 11:54:24;;;;;;;7.13;6.43;;;19.50;99.90;;;;;;5033371;28;20210;-68
2021/09/02 11:56:51;;;;;;;9.53;6.80;;;19.70;99.90;;;;;;5031149;28;20836;-69
2021/09/02 11:59:16;;;;;;;5.93;5.37;;;19.60;99.90;;;;;;5030675;28;20542;-67
2021/09/02 12:01:44;;;;;;;8.07;7.27;;;19.70;99.90;;;;;;5029684;28;20522;-67
2021/09/02 12:04:22;;;;;;;7.30;5.73;;;20.00;99.90;;;;;;5023575;28;20229;-67
2021/09/02 12:06:53;;;;;;;6.87;6.10;;;20.10;99.90;;;;;;5046540;28;20836;-70
2021/09/02 12:09:22;;;;;;;9.40;6.97;;;20.10;99.90;;;;;;5033283;28;20413;-67
2021/09/02 12:11:48;;;;;;;13.40;6.17;;;20.00;99.90;;;;;;5032257;28;20912;-66
2021/09/02 12:14:22;;;;;;;7.13;6.50;;;20.20;99.90;;;;;;4998022;28;20853;-67
2021/09/02 12:17:07;;;;;;;7.73;6.57;;;20.00;99.90;;;;;;5032938;28;20967;-67
2021/09/02 12:19:53;;;;;;;8.03;6.40;;;20.00;99.90;;;;;;5032958;28;20454;-67
2021/09/02 12:22:20;;;;;;;6.63;5.73;;;20.10;99.90;;;;;;5032785;28;20445;-70
2021/09/02 12:24:45;;;;;;;8.00;6.30;;;20.10;99.90;;;;;;5032947;28;20454;-69
2021/09/02 12:27:11;;;;;;;7.10;5.63;;;20.10;99.90;;;;;;5032167;28;20866;-68
2021/09/02 12:29:48;;;;;;;6.77;6.17;;;20.10;99.90;;;;;;5032642;28;20228;-67
2021/09/02 12:32:19;;;;;;;7.13;6.43;;;20.10;99.90;;;;;;5032553;28;20196;-69
2021/09/02 12:34:45;;;;;;;7.10;6.40;;;20.00;99.90;;;;;;5032868;28;20507;-68
2021/09/02 12:37:13;;;;;;;7.47;6.00;;;20.10;99.90;;;;;;5032204;28;20509;-67
2021/09/02 12:39:50;;;;;;;6.97;6.27;;;20.20;99.90;;;;;;5032448;28;20455;-68
2021/09/02 12:42:24;;;;;;;7.80;6.83;;;20.30;99.90;;;;;;5032699;28;20482;-68